createdAt,value
2023-04-19T00:01:23.417Z,10.60
2023-04-19T00:03:57.251Z,10.63
2023-04-19T00:06:31.953Z,9.88
2023-04-19T00:09:07.251Z,9.05
2023-04-19T00:11:40.734Z,9.75
2023-04-19T00:14:14.788Z,9.75
2023-04-19T00:16:48.529Z,10.13
2023-04-19T00:19:23.353Z,10.02
2023-04-19T00:21:56.802Z,9.52
2023-04-19T00:24:32.145Z,10.30
2023-04-19T00:27:05.782Z,10.10
2023-04-19T00:29:39.329Z,9.80
2023-04-19T00:32:12.770Z,9.25
2023-04-19T00:34:46.385Z,10.25
2023-04-19T00:37:19.923Z,9.75
2023-04-19T00:39:54.768Z,9.30
2023-04-19T00:42:28.220Z,10.15
2023-04-19T00:45:01.698Z,9.38
2023-04-19T00:47:35.661Z,10.50
2023-04-19T00:50:10.327Z,10.18
2023-04-19T00:52:43.926Z,9.20
2023-04-19T00:55:18.806Z,10.38
2023-04-19T00:57:52.893Z,9.38
2023-04-19T01:00:26.563Z,9.35
2023-04-19T01:03:00.189Z,10.30
2023-04-19T01:05:33.856Z,9.98
2023-04-19T01:08:08.429Z,10.38
2023-04-19T01:10:43.336Z,9.38
2023-04-19T01:13:16.856Z,9.32
2023-04-19T01:15:51.660Z,9.32
2023-04-19T01:18:32.873Z,9.98
2023-04-19T01:21:06.851Z,10.43
2023-04-19T01:23:42.049Z,9.98
2023-04-19T01:26:16.275Z,11.75
2023-04-19T01:28:49.712Z,10.02
2023-04-19T01:31:23.371Z,11.13
2023-04-19T01:33:56.873Z,9.10
2023-04-19T01:36:31.131Z,10.43
2023-04-19T01:39:06.266Z,10.35
2023-04-19T01:41:39.771Z,8.93
2023-04-19T01:44:14.004Z,10.43
2023-04-19T01:46:47.796Z,10.18
2023-04-19T01:49:21.296Z,9.23
2023-04-19T01:51:55.669Z,11.20
2023-04-19T01:54:30.509Z,10.93
2023-04-19T01:57:04.022Z,9.73
2023-04-19T01:59:37.806Z,10.77
2023-04-19T02:02:11.711Z,10.25
2023-04-19T02:04:45.290Z,9.60
2023-04-19T02:07:18.752Z,10.02
2023-04-19T02:09:53.652Z,10.65
2023-04-19T02:12:28.969Z,10.52
2023-04-19T02:15:03.329Z,8.30
2023-04-19T02:17:38.861Z,9.48
2023-04-19T02:20:12.786Z,10.63
2023-04-19T02:22:47.864Z,8.68
2023-04-19T02:25:22.856Z,10.45
2023-04-19T02:27:56.314Z,9.90
2023-04-19T02:30:29.856Z,9.18
2023-04-19T02:33:03.366Z,11.80
2023-04-19T02:35:37.047Z,10.45
2023-04-19T02:38:10.584Z,10.18
2023-04-19T02:40:45.507Z,10.80
2023-04-19T02:43:18.963Z,9.75
2023-04-19T02:45:52.722Z,9.85
2023-04-19T02:48:27.915Z,9.13
2023-04-19T02:51:01.755Z,10.10
2023-04-19T02:53:35.831Z,10.25
2023-04-19T02:56:11.202Z,9.70
2023-04-19T02:58:44.709Z,10.55
2023-04-19T03:01:18.754Z,9.57
2023-04-19T03:03:52.303Z,11.57
2023-04-19T03:06:26.152Z,11.15
2023-04-19T03:08:59.692Z,9.93
2023-04-19T03:11:35.837Z,9.85
2023-04-19T03:14:09.461Z,9.40
2023-04-19T03:16:44.838Z,8.65
2023-04-19T03:19:18.510Z,9.57
2023-04-19T03:21:56.628Z,9.43
2023-04-19T03:24:31.132Z,9.35
2023-04-19T03:27:11.487Z,9.25
2023-04-19T03:29:46.689Z,11.52
2023-04-19T03:32:21.944Z,9.07
2023-04-19T03:34:55.448Z,9.32
2023-04-19T03:37:28.918Z,9.68
2023-04-19T03:40:02.986Z,8.38
2023-04-19T03:42:41.432Z,8.82
2023-04-19T03:45:23.140Z,8.15
2023-04-19T03:47:56.730Z,10.07
2023-04-19T03:50:31.462Z,9.98
2023-04-19T03:53:06.374Z,10.70
2023-04-19T03:55:41.086Z,8.65
2023-04-19T03:58:16.364Z,10.18
2023-04-19T04:00:57.075Z,10.35
2023-04-19T04:03:31.156Z,10.55
2023-04-19T04:06:05.006Z,9.52
2023-04-19T04:08:38.514Z,9.75
2023-04-19T04:11:12.283Z,9.00
2023-04-19T04:13:49.575Z,11.27
2023-04-19T04:16:30.385Z,9.07
2023-04-19T04:19:04.275Z,11.93
2023-04-19T04:21:41.021Z,11.70
2023-04-19T04:24:15.252Z,12.32
2023-04-19T04:27:00.997Z,10.88
2023-04-19T04:29:39.260Z,10.38
2023-04-19T04:32:14.650Z,9.68
2023-04-19T04:34:49.098Z,11.10
2023-04-19T04:37:34.532Z,14.00
2023-04-19T04:40:10.022Z,11.93
2023-04-19T04:42:45.614Z,11.73
2023-04-19T04:45:21.285Z,12.32
2023-04-19T04:47:57.851Z,12.32
2023-04-19T04:50:31.513Z,11.70
2023-04-19T04:53:05.582Z,11.18
2023-04-19T04:55:39.774Z,11.57
2023-04-19T04:58:13.492Z,13.40
2023-04-19T05:01:10.859Z,11.40
2023-04-19T05:03:47.035Z,13.88
2023-04-19T05:06:24.720Z,14.38
2023-04-19T05:08:58.360Z,9.50
2023-04-19T05:11:38.721Z,9.32
2023-04-19T05:14:12.913Z,8.15
2023-04-19T05:16:48.003Z,9.13
2023-04-19T05:19:21.534Z,7.50
2023-04-19T05:22:01.096Z,7.70
2023-04-19T05:24:34.821Z,6.82
2023-04-19T05:27:09.513Z,8.60
2023-04-19T05:29:43.002Z,7.70
2023-04-19T05:32:18.055Z,7.57
2023-04-19T05:34:57.434Z,7.35
2023-04-19T05:37:31.306Z,9.02
2023-04-19T05:40:05.862Z,9.15
2023-04-19T05:42:39.957Z,10.52
2023-04-19T05:45:15.722Z,14.55
2023-04-19T05:47:50.978Z,11.20
2023-04-19T05:50:46.566Z,10.88
2023-04-19T05:53:46.143Z,9.90
2023-04-19T05:56:19.999Z,9.32
2023-04-19T05:58:55.735Z,7.90
2023-04-19T06:01:29.519Z,7.88
2023-04-19T06:04:05.272Z,6.38
2023-04-19T06:06:39.282Z,5.70
2023-04-19T06:09:13.759Z,5.07
2023-04-19T06:11:51.130Z,5.32
2023-04-19T06:14:25.585Z,5.25
2023-04-19T06:16:59.104Z,5.80
2023-04-19T06:19:34.145Z,4.47
2023-04-19T06:22:07.977Z,4.50
2023-04-19T06:24:41.433Z,5.03
2023-04-19T06:27:17.227Z,4.55
2023-04-19T06:29:51.353Z,3.90
2023-04-19T06:32:25.956Z,3.90
2023-04-19T06:35:00.963Z,3.58
2023-04-19T06:37:35.086Z,4.45
2023-04-19T06:40:09.940Z,3.60
2023-04-19T06:42:43.443Z,3.92
2023-04-19T06:45:18.753Z,3.67
2023-04-19T06:47:52.300Z,3.85
2023-04-19T06:50:27.379Z,3.75
2023-04-19T06:53:02.290Z,4.13
2023-04-19T06:55:37.862Z,4.15
2023-04-19T06:58:11.380Z,3.90
2023-04-19T07:00:44.892Z,4.22
2023-04-19T07:03:18.482Z,3.08
2023-04-19T07:05:56.176Z,4.60
2023-04-19T07:08:46.260Z,3.60
2023-04-19T07:11:22.626Z,4.10
2023-04-19T07:13:56.423Z,3.92
2023-04-19T07:16:30.293Z,5.38
2023-04-19T07:19:03.877Z,6.00
2023-04-19T07:21:39.647Z,4.00
2023-04-19T07:24:13.268Z,4.68
2023-04-19T07:26:46.809Z,3.97
2023-04-19T07:29:20.490Z,4.13
2023-04-19T07:31:55.509Z,3.92
2023-04-19T07:34:29.079Z,4.38
2023-04-19T07:37:04.167Z,3.67
2023-04-19T07:39:37.702Z,4.05
2023-04-19T07:42:11.197Z,3.85
2023-04-19T07:44:45.086Z,3.67
2023-04-19T07:47:18.681Z,4.18
2023-04-19T07:49:53.647Z,4.00
2023-04-19T07:52:28.758Z,5.40
2023-04-19T07:55:02.343Z,5.05
2023-04-19T07:57:36.409Z,4.72
2023-04-19T08:00:11.205Z,5.53
2023-04-19T08:02:54.241Z,4.78
2023-04-19T08:05:28.272Z,5.45
2023-04-19T08:08:03.523Z,4.57
2023-04-19T08:10:37.165Z,5.47
2023-04-19T08:13:10.683Z,5.38
2023-04-19T08:18:21.336Z,6.15
2023-04-19T08:20:56.261Z,5.63
2023-04-19T08:23:41.291Z,5.50
2023-04-19T08:26:22.813Z,5.65
2023-04-19T08:28:56.378Z,7.75
2023-04-19T08:31:29.978Z,7.38
2023-04-19T08:34:04.019Z,8.70
2023-04-19T08:36:43.382Z,10.13
2023-04-19T08:39:32.472Z,8.53
2023-04-19T08:42:24.188Z,7.78
2023-04-19T08:47:58.969Z,10.20
2023-04-19T08:50:42.750Z,8.40
2023-04-19T08:53:29.454Z,7.38
2023-04-19T08:56:17.479Z,8.45
2023-04-19T08:59:07.613Z,8.38
2023-04-19T09:01:48.062Z,9.15
2023-04-19T09:07:00.630Z,9.20
2023-04-19T09:09:40.830Z,10.13
2023-04-19T09:12:20.991Z,10.38
2023-04-19T09:15:01.731Z,8.75
2023-04-19T09:17:39.250Z,9.40
2023-04-19T09:20:13.022Z,9.05
2023-04-19T09:23:04.871Z,7.93
2023-04-19T09:25:59.250Z,11.13
2023-04-19T09:28:33.415Z,11.13
2023-04-19T09:31:30.275Z,9.77
2023-04-19T09:34:18.064Z,11.02
2023-04-19T09:37:00.732Z,9.82
2023-04-19T09:39:42.436Z,8.18
2023-04-19T09:42:20.722Z,9.00
2023-04-19T09:47:44.022Z,9.15
2023-04-19T09:50:23.900Z,8.10
2023-04-19T09:53:00.202Z,9.15
2023-04-19T09:55:45.505Z,8.77
2023-04-19T09:58:38.308Z,7.72
2023-04-19T10:01:24.758Z,8.18
2023-04-19T10:04:10.296Z,7.20
2023-04-19T10:07:19.341Z,7.85
2023-04-19T10:09:54.335Z,7.28
2023-04-19T10:15:06.820Z,7.57
2023-04-19T10:17:45.422Z,7.70
2023-04-19T10:20:24.982Z,8.43
2023-04-19T10:22:58.769Z,9.50
2023-04-19T10:25:32.372Z,8.60
2023-04-19T10:28:06.389Z,9.05
2023-04-19T10:30:54.734Z,9.88
2023-04-19T10:33:31.673Z,8.40
2023-04-19T10:36:09.631Z,9.88
2023-04-19T10:38:44.755Z,9.95
2023-04-19T10:41:19.403Z,9.25
2023-04-19T10:44:11.559Z,10.77
2023-04-19T10:46:45.178Z,10.43
2023-04-19T10:49:25.133Z,10.00
2023-04-19T10:52:00.246Z,9.52
2023-04-19T10:54:36.550Z,10.02
2023-04-19T10:57:11.548Z,9.30
2023-04-19T10:59:46.109Z,9.38
2023-04-19T11:02:29.495Z,6.78
2023-04-19T11:05:05.560Z,7.68
2023-04-19T11:07:41.172Z,7.50
2023-04-19T11:10:14.889Z,4.90
2023-04-19T11:12:48.393Z,4.30
2023-04-19T11:15:24.287Z,3.70
2023-04-19T11:18:12.132Z,4.95
2023-04-19T11:20:54.669Z,2.75
2023-04-19T11:23:28.222Z,2.25
2023-04-19T11:26:01.730Z,2.10
2023-04-19T11:28:35.341Z,1.58
2023-04-19T11:31:08.906Z,2.15
2023-04-19T11:33:45.123Z,2.67
2023-04-19T11:36:20.132Z,2.42
2023-04-19T11:38:54.546Z,2.25
2023-04-19T11:41:28.092Z,1.83
2023-04-19T11:44:01.603Z,1.95
2023-04-19T11:46:35.218Z,1.88
2023-04-19T11:49:08.853Z,2.15
2023-04-19T11:51:46.750Z,2.20
2023-04-19T11:54:20.208Z,2.22
2023-04-19T11:57:04.770Z,1.75
2023-04-19T11:59:38.585Z,2.70
2023-04-19T12:02:13.925Z,2.15
2023-04-19T12:04:47.695Z,2.28
2023-04-19T12:07:23.429Z,1.98
2023-04-19T12:09:56.920Z,2.50
2023-04-19T12:12:33.777Z,2.83
2023-04-19T12:15:08.409Z,2.00
2023-04-19T12:17:57.866Z,1.90
2023-04-19T12:20:32.906Z,2.60
2023-04-19T12:23:11.198Z,2.40
2023-04-19T12:25:46.645Z,2.47
2023-04-19T12:28:20.233Z,1.80
2023-04-19T12:30:54.097Z,2.13
2023-04-19T12:33:27.796Z,2.85
2023-04-19T12:36:01.527Z,2.40
2023-04-19T12:38:37.665Z,2.70
2023-04-19T12:41:11.233Z,2.83
2023-04-19T12:43:44.816Z,2.92
2023-04-19T12:46:18.532Z,2.97
2023-04-19T12:48:52.140Z,2.80
2023-04-19T12:51:25.779Z,2.42
2023-04-19T12:54:01.331Z,2.65
2023-04-19T12:56:37.820Z,2.20
2023-04-19T12:59:11.581Z,2.03
2023-04-19T13:01:45.247Z,2.10
2023-04-19T13:04:19.267Z,2.15
2023-04-19T13:06:53.154Z,2.17
2023-04-19T13:09:28.633Z,2.10
2023-04-19T13:12:02.224Z,2.30
2023-04-19T13:14:35.897Z,2.58
2023-04-19T13:17:09.417Z,2.30
2023-04-19T13:19:43.122Z,2.20
2023-04-19T13:22:16.721Z,2.85
2023-04-19T13:24:51.626Z,2.95
2023-04-19T13:27:25.207Z,2.72
2023-04-19T13:29:58.744Z,2.95
2023-04-19T13:32:32.526Z,2.80
2023-04-19T13:35:06.778Z,2.15
2023-04-19T13:37:42.380Z,3.10
2023-04-19T13:40:19.724Z,3.05
2023-04-19T13:42:54.957Z,3.40
2023-04-19T13:45:28.685Z,2.85
2023-04-19T13:48:02.268Z,3.85
2023-04-19T13:50:35.880Z,3.35
2023-04-19T13:53:09.536Z,3.58
2023-04-19T13:55:44.411Z,2.47
2023-04-19T13:58:18.184Z,3.58
2023-04-19T14:00:51.681Z,3.00
2023-04-19T14:03:26.833Z,2.95
2023-04-19T14:06:00.542Z,2.80
2023-04-19T14:08:34.113Z,2.75
2023-04-19T14:11:08.989Z,2.67
2023-04-19T14:13:42.943Z,3.00
2023-04-19T14:16:16.916Z,3.22
2023-04-19T14:18:50.708Z,2.75
2023-04-19T14:21:24.590Z,3.08
2023-04-19T14:23:58.258Z,3.03
2023-04-19T14:26:33.320Z,3.20
2023-04-19T14:29:06.957Z,2.53
2023-04-19T14:31:40.613Z,2.80
2023-04-19T14:34:15.427Z,3.00
2023-04-19T14:36:51.576Z,3.58
2023-04-19T14:39:25.396Z,3.35
2023-04-19T14:42:00.678Z,3.20
2023-04-19T14:44:34.850Z,3.38
2023-04-19T14:47:10.236Z,3.80
2023-04-19T14:49:44.923Z,3.35
2023-04-19T14:52:18.893Z,4.50
2023-04-19T14:54:52.584Z,4.18
2023-04-19T14:57:28.469Z,3.80
2023-04-19T15:00:02.306Z,4.03
2023-04-19T15:02:37.553Z,4.15
2023-04-19T15:05:11.770Z,4.00
2023-04-19T15:07:45.492Z,3.97
2023-04-19T15:10:19.329Z,3.63
2023-04-19T15:12:54.359Z,3.88
2023-04-19T15:15:27.973Z,3.78
2023-04-19T15:18:01.852Z,3.70
2023-04-19T15:20:35.544Z,4.07
2023-04-19T15:23:09.266Z,3.97
2023-04-19T15:25:43.100Z,4.38
2023-04-19T15:28:18.354Z,4.60
2023-04-19T15:30:59.204Z,4.45
2023-04-19T15:33:32.939Z,4.95
2023-04-19T15:36:07.052Z,4.07
2023-04-19T15:38:41.994Z,3.97
2023-04-19T15:41:18.524Z,3.72
2023-04-19T15:43:53.737Z,4.25
2023-04-19T15:46:27.386Z,3.85
2023-04-19T15:49:01.509Z,3.67
2023-04-19T15:51:35.176Z,3.90
2023-04-19T15:54:08.894Z,5.22
2023-04-19T15:56:42.567Z,4.15
2023-04-19T15:59:17.846Z,4.03
2023-04-19T16:01:51.909Z,3.85
2023-04-19T16:04:25.921Z,4.22
2023-04-19T16:07:00.544Z,4.13
2023-04-19T16:09:34.390Z,3.90
2023-04-19T16:12:08.200Z,4.03
2023-04-19T16:14:43.151Z,3.95
2023-04-19T16:17:16.673Z,3.72
2023-04-19T16:19:50.174Z,3.88
2023-04-19T16:22:23.727Z,4.03
2023-04-19T16:24:57.480Z,3.55
2023-04-19T16:27:31.307Z,4.28
2023-04-19T16:30:07.622Z,3.90
2023-04-19T16:32:41.769Z,4.97
2023-04-19T16:35:15.315Z,4.53
2023-04-19T16:37:48.852Z,4.18
2023-04-19T16:40:23.197Z,4.22
2023-04-19T16:42:57.707Z,4.97
2023-04-19T16:45:32.771Z,5.03
2023-04-19T16:48:06.566Z,4.63
2023-04-19T16:50:40.198Z,4.88
2023-04-19T16:53:13.721Z,4.32
2023-04-19T16:55:47.192Z,4.28
2023-04-19T16:58:20.668Z,3.63
2023-04-19T17:00:55.708Z,4.07
2023-04-19T17:03:30.390Z,3.63
2023-04-19T17:06:04.307Z,4.95
2023-04-19T17:08:38.469Z,5.07
2023-04-19T17:11:11.961Z,5.43
2023-04-19T17:13:45.444Z,5.05
2023-04-19T17:16:20.417Z,4.15
2023-04-19T17:18:56.136Z,6.07
2023-04-19T17:21:29.624Z,4.90
2023-04-19T17:24:03.096Z,7.25
2023-04-19T17:26:36.595Z,5.38
2023-04-19T17:29:10.092Z,6.28
2023-04-19T17:31:45.023Z,5.60
2023-04-19T17:34:18.738Z,5.88
2023-04-19T17:36:53.173Z,4.30
2023-04-19T17:39:27.994Z,14.77
2023-04-19T17:42:01.858Z,5.75
2023-04-19T17:44:35.359Z,4.78
2023-04-19T17:47:10.267Z,5.68
2023-04-19T17:49:47.264Z,6.40
2023-04-19T17:52:20.823Z,6.15
2023-04-19T17:54:54.333Z,6.80
2023-04-19T17:57:29.149Z,6.93
2023-04-19T18:00:07.476Z,6.75
2023-04-19T18:02:44.194Z,7.13
2023-04-19T18:05:18.441Z,6.95
2023-04-19T18:07:52.298Z,6.57
2023-04-19T18:10:26.031Z,6.07
2023-04-19T18:12:59.769Z,6.65
2023-04-19T18:15:33.395Z,6.15
2023-04-19T18:18:08.507Z,6.53
2023-04-19T18:20:42.093Z,7.00
2023-04-19T18:23:15.521Z,5.97
2023-04-19T18:25:55.073Z,6.05
2023-04-19T18:28:28.645Z,6.25
2023-04-19T18:31:02.248Z,6.10
2023-04-19T18:33:37.489Z,10.73
2023-04-19T18:36:11.151Z,19.13
2023-04-19T18:38:44.685Z,19.02
2023-04-19T18:41:18.180Z,16.80
2023-04-19T18:44:18.543Z,33.05
2023-04-19T18:46:45.295Z,29.85
2023-04-19T18:49:20.206Z,62.00
2023-04-19T18:51:53.681Z,30.33
2023-04-19T18:54:27.886Z,30.20
2023-04-19T18:59:38.167Z,16.83
2023-04-19T19:02:11.858Z,18.48
2023-04-19T19:04:56.085Z,15.48
2023-04-19T19:07:36.215Z,16.60
2023-04-19T19:10:19.194Z,16.20
2023-04-19T19:12:55.652Z,10.15
2023-04-19T19:15:29.455Z,15.25
2023-04-19T19:18:03.283Z,12.75
2023-04-19T19:20:39.024Z,13.88
2023-04-19T19:23:13.085Z,18.92
2023-04-19T19:25:50.276Z,17.00
2023-04-19T19:28:23.867Z,14.20
2023-04-19T19:30:57.487Z,14.80
2023-04-19T19:33:32.345Z,13.40
2023-04-19T19:36:08.028Z,11.40
2023-04-19T19:38:41.838Z,17.17
2023-04-19T19:43:52.673Z,18.92
2023-04-19T19:46:30.541Z,16.35
2023-04-19T19:49:05.650Z,15.10
2023-04-19T19:51:56.765Z,14.40
2023-04-19T19:54:31.004Z,18.77
2023-04-19T19:59:49.571Z,14.50
2023-04-19T20:02:27.056Z,18.98
2023-04-19T20:05:01.017Z,21.25
2023-04-19T20:08:00.416Z,22.05
2023-04-19T20:10:33.463Z,23.10
2023-04-19T20:13:07.235Z,27.70
2023-04-19T20:15:41.068Z,29.92
2023-04-19T20:18:14.697Z,25.98
2023-04-19T20:20:48.196Z,27.45
2023-04-19T20:23:23.139Z,30.30
2023-04-19T20:25:57.511Z,28.27
2023-04-19T20:28:31.119Z,24.85
2023-04-19T20:31:04.637Z,22.95
2023-04-19T20:33:38.195Z,25.85
2023-04-19T20:36:13.968Z,25.13
2023-04-19T20:38:48.946Z,22.70
2023-04-19T20:41:22.745Z,25.75
2023-04-19T20:43:59.797Z,29.30
2023-04-19T20:46:36.025Z,28.50
2023-04-19T20:49:09.498Z,24.52
2023-04-19T20:51:43.000Z,26.80
2023-04-19T20:54:18.033Z,30.23
2023-04-19T20:56:54.833Z,32.90
2023-04-19T20:59:28.451Z,32.83
2023-04-19T21:02:02.051Z,26.98
2023-04-19T21:04:36.181Z,27.40
2023-04-19T21:07:09.921Z,27.55
2023-04-19T21:09:44.874Z,27.27
2023-04-19T21:12:18.805Z,28.67
2023-04-19T21:14:52.876Z,26.88
2023-04-19T21:17:26.472Z,27.42
2023-04-19T21:20:00.001Z,26.30
2023-04-19T21:22:33.769Z,25.95
2023-04-19T21:25:10.451Z,28.38
2023-04-19T21:27:44.064Z,31.70
2023-04-19T21:30:17.612Z,26.05
2023-04-19T21:32:51.174Z,25.50
2023-04-19T21:35:24.812Z,27.05
2023-04-19T21:37:58.271Z,25.05
2023-04-19T21:40:33.156Z,22.35
2023-04-19T21:43:06.858Z,22.98
2023-04-19T21:45:40.308Z,24.67
2023-04-19T21:48:13.872Z,22.75
2023-04-19T21:50:47.346Z,22.48
2023-04-19T21:53:21.200Z,24.50
2023-04-19T21:55:56.283Z,20.88
2023-04-19T21:58:34.841Z,22.80
2023-04-19T22:01:08.544Z,22.02
2023-04-19T22:03:42.203Z,20.63
2023-04-19T22:06:17.165Z,21.02
2023-04-19T22:08:51.611Z,21.40
2023-04-19T22:11:28.995Z,23.27
2023-04-19T22:14:03.273Z,22.85
2023-04-19T22:16:37.251Z,28.77
2023-04-19T22:19:10.861Z,30.92
2023-04-19T22:21:44.391Z,29.27
2023-04-19T22:24:17.919Z,26.05
2023-04-19T22:26:53.097Z,28.58
2023-04-19T22:29:26.592Z,28.48
2023-04-19T22:32:00.222Z,27.08
2023-04-19T22:34:33.788Z,30.02
2023-04-19T22:37:07.235Z,28.70
2023-04-19T22:39:40.806Z,33.70
2023-04-19T22:42:15.740Z,33.03
2023-04-19T22:44:49.191Z,29.08
2023-04-19T22:47:22.773Z,29.13
2023-04-19T22:49:56.317Z,32.80
2023-04-19T22:52:29.814Z,29.55
2023-04-19T22:55:03.518Z,31.95
2023-04-19T22:57:38.413Z,27.95
2023-04-19T23:00:12.762Z,28.63
2023-04-19T23:02:46.391Z,30.25
2023-04-19T23:05:20.203Z,29.33
2023-04-19T23:07:53.701Z,28.50
2023-04-19T23:10:27.874Z,25.13
2023-04-19T23:13:02.749Z,30.88
2023-04-19T23:15:37.192Z,27.58
2023-04-19T23:18:11.670Z,29.75
2023-04-19T23:20:45.117Z,29.52
2023-04-19T23:23:19.967Z,31.08
2023-04-19T23:25:53.408Z,29.50
2023-04-19T23:28:28.281Z,29.65
2023-04-19T23:31:01.818Z,27.05
2023-04-19T23:33:35.584Z,27.52
2023-04-19T23:36:09.591Z,27.85
2023-04-19T23:38:43.304Z,28.63
2023-04-19T23:41:17.019Z,29.27
2023-04-19T23:43:52.017Z,24.60
2023-04-19T23:46:25.597Z,28.23
2023-04-19T23:48:59.098Z,25.95
2023-04-19T23:51:32.898Z,24.77
2023-04-19T23:54:06.682Z,23.10
2023-04-19T23:56:40.126Z,21.77
2023-04-19T23:59:15.244Z,24.20
